Time;durP1;ratioP1;P1;durP2;ratioP2;P2;SDS_P1;SDS_P2;PMS_P1;PMS_P2;Temp;Humidity;BMP_temperature;BMP_pressure;BME280_temperature;BME280_humidity;BME280_pressure;Samples;Min_cycle;Max_cycle;Signal;HPM_P1;HPM_P2
2022/12/17 13:06:54;;;;;;;0.40;0.40;;;-5.00;99.90;;;-5.31;100.00;101082.38;4870575;29;20232;-71
2022/12/17 13:09:32;;;;;;;0.30;0.30;;;-4.90;99.90;;;-5.29;100.00;101078.25;4852889;29;20228;-72
2022/12/17 13:12:01;;;;;;;0.20;0.20;;;-4.90;99.90;;;-5.35;100.00;101082.00;4866503;29;20237;-71
2022/12/17 13:15:16;;;;;;;0.30;0.30;;;-4.90;99.90;;;-5.38;100.00;101072.34;4874525;29;20316;-71
2022/12/17 13:18:18;;;;;;;0.20;0.20;;;-4.90;99.90;;;-5.57;100.00;101062.19;4842732;29;20309;-73
2022/12/17 13:21:05;;;;;;;0.20;0.20;;;-5.00;99.90;;;-5.59;100.00;101063.75;4837175;29;20229;-72
2022/12/17 13:23:37;;;;;;;0.57;0.57;;;-5.00;99.90;;;-5.61;100.00;101060.16;4820091;29;20328;-72
2022/12/17 13:26:17;;;;;;;0.30;0.30;;;-5.10;99.90;;;-5.46;100.00;101065.66;4829405;29;20241;-71
2022/12/17 13:28:56;;;;;;;0.30;0.30;;;-5.10;99.90;;;-5.82;100.00;101036.09;4849593;29;20260;-72
2022/12/17 13:31:55;;;;;;;0.20;0.20;;;-5.20;99.90;;;-5.48;100.00;101065.53;4832523;29;20248;-72
2022/12/17 13:34:43;;;;;;;0.40;0.40;;;-5.20;99.90;;;-5.42;100.00;101083.19;4817152;29;20241;-72
2022/12/17 13:37:32;;;;;;;1.55;1.45;;;-5.00;99.90;;;-5.50;100.00;101068.75;4835676;29;20740;-72
2022/12/17 13:40:20;;;;;;;0.20;0.20;;;-5.00;99.90;;;-5.39;100.00;101079.94;4851472;29;20379;-71
2022/12/17 13:42:48;;;;;;;0.30;0.30;;;-5.00;99.90;;;-5.47;100.00;101064.75;4849045;29;20229;-71
2022/12/17 13:45:20;;;;;;;0.45;0.45;;;-5.00;99.90;;;-5.49;100.00;101074.03;4843257;29;20324;-72
2022/12/17 13:47:58;;;;;;;0.30;0.30;;;-5.00;99.90;;;-5.54;100.00;101069.28;4841097;29;20311;-71
2022/12/17 13:50:29;;;;;;;0.55;0.55;;;-5.10;99.90;;;-5.46;100.00;101075.97;4837198;29;20287;-72
2022/12/17 13:53:14;;;;;;;0.40;0.40;;;-5.10;99.90;;;-5.70;100.00;101053.34;4833495;29;20244;-71
2022/12/17 13:55:51;;;;;;;0.30;0.30;;;-4.90;99.90;;;-5.63;100.00;101068.53;4864314;29;20236;-71
2022/12/17 13:58:36;;;;;;;0.63;0.63;;;-5.20;99.90;;;-5.67;100.00;101075.09;4824413;29;20233;-72
2022/12/17 14:01:10;;;;;;;0.20;0.20;;;-5.20;99.90;;;-5.92;100.00;101063.56;4839584;29;20252;-72
2022/12/17 14:03:37;;;;;;;0.30;0.30;;;-5.40;99.90;;;-5.80;100.00;101074.84;4834992;29;20714;-71
2022/12/17 14:06:34;;;;;;;0.30;0.30;;;-5.40;99.90;;;-5.64;100.00;101082.19;4835991;29;20684;-71
2022/12/17 14:09:02;;;;;;;0.20;0.20;;;-5.20;99.90;;;-5.68;100.00;101081.03;4842127;29;20312;-71
2022/12/17 14:14:45;;;;;;;0.30;0.30;;;-5.20;99.90;;;-5.59;100.00;101084.38;4850661;29;20233;-71
2022/12/17 14:17:19;;;;;;;0.82;0.82;;;-5.10;99.90;;;-5.68;100.00;101085.28;4833939;29;20325;-71
2022/12/17 14:20:04;;;;;;;0.35;0.35;;;-5.20;99.90;;;-5.69;100.00;101092.09;4843645;29;20253;-71
2022/12/17 14:22:42;;;;;;;0.20;0.20;;;-5.30;99.90;;;-5.55;100.00;101104.47;4838624;29;20296;-72
2022/12/17 14:25:22;;;;;;;0.20;0.20;;;-5.10;99.90;;;-5.53;100.00;101102.91;4854123;29;20293;-71
2022/12/17 14:28:03;;;;;;;1.20;1.20;;;-5.20;99.90;;;-5.83;100.00;101078.06;4817920;29;20237;-71
2022/12/17 14:30:39;;;;;;;0.30;0.30;;;-5.30;99.90;;;-5.79;100.00;101086.97;4848179;29;20263;-70
2022/12/17 14:33:29;;;;;;;0.40;0.40;;;-5.40;99.90;;;-5.58;100.00;101105.88;4823459;29;20769;-71
2022/12/17 14:36:00;;;;;;;0.20;0.20;;;-5.30;99.90;;;-5.82;100.00;101095.31;4832008;29;20271;-71
2022/12/17 14:38:28;;;;;;;0.20;0.20;;;-5.40;99.90;;;-5.90;100.00;101093.81;4836032;29;20236;-70
2022/12/17 14:44:02;;;;;;;0.30;0.30;;;-5.60;99.90;;;-5.95;100.00;101109.66;4851729;29;20325;-71
2022/12/17 14:46:31;;;;;;;0.20;0.20;;;-5.60;99.90;;;-6.02;100.00;101103.09;4840384;29;20232;-71
2022/12/17 14:49:04;;;;;;;0.30;0.30;;;-5.70;99.90;;;-5.86;100.00;101115.53;4851303;29;20741;-71
2022/12/17 14:51:39;;;;;;;0.20;0.20;;;-5.50;99.90;;;-6.13;100.00;101098.69;4856173;29;20240;-71
2022/12/17 14:54:16;;;;;;;0.30;0.30;;;-5.70;99.90;;;-5.97;100.00;101112.09;4838632;29;20285;-71
2022/12/17 14:56:46;;;;;;;0.30;0.30;;;-5.60;99.90;;;-5.84;100.00;101121.72;4846402;29;20238;-71
2022/12/17 14:59:36;;;;;;;0.30;0.30;;;-5.50;99.90;;;-5.83;100.00;101118.38;4836970;29;20264;-72
2022/12/17 15:02:16;;;;;;;0.30;0.30;;;-5.40;99.90;;;-5.82;100.00;101121.09;4833294;29;20237;-72
2022/12/17 15:04:44;;;;;;;0.30;0.30;;;-5.40;99.90;;;-5.80;100.00;101114.38;4850973;29;20698;-72
2022/12/17 15:07:21;;;;;;;0.55;0.55;;;-5.40;99.90;;;-5.82;100.00;101125.34;4845164;29;20285;-72
2022/12/17 15:09:48;;;;;;;0.30;0.30;;;-5.40;99.90;;;-6.00;100.00;101126.38;4840432;29;20263;-72
2022/12/17 15:12:16;;;;;;;0.30;0.30;;;-5.50;99.90;;;-5.86;100.00;101134.47;4851487;29;20233;-72
2022/12/17 15:14:43;;;;;;;0.30;0.30;;;-5.50;99.90;;;-6.07;100.00;101124.97;4836277;29;20260;-72
2022/12/17 15:17:10;;;;;;;0.30;0.30;;;-5.60;99.90;;;-6.02;100.00;101135.66;4860051;29;23298;-72
2022/12/17 15:19:37;;;;;;;0.20;0.20;;;-5.60;99.90;;;-5.97;100.00;101149.81;4855987;29;20240;-72
2022/12/17 15:22:04;;;;;;;0.63;0.63;;;-5.50;99.90;;;-6.02;100.00;101143.38;4838558;29;20232;-72
2022/12/17 15:24:31;;;;;;;0.30;0.30;;;-5.50;99.90;;;-6.02;100.00;101154.56;4870016;29;20225;-71
2022/12/17 15:26:58;;;;;;;0.63;0.63;;;-5.60;99.90;;;-6.16;100.00;101152.50;4868349;29;20256;-72
2022/12/17 15:29:26;;;;;;;0.30;0.30;;;-5.70;99.90;;;-5.99;100.00;101165.16;4869569;29;20323;-72
2022/12/17 15:31:53;;;;;;;1.17;1.17;;;-5.60;99.90;;;-6.11;100.00;101163.19;4857161;29;20288;-72
2022/12/17 15:34:20;;;;;;;1.02;1.02;;;-5.70;99.90;;;-6.45;100.00;101137.09;4874023;29;20231;-73
2022/12/17 15:36:48;;;;;;;0.30;0.30;;;-5.90;99.90;;;-6.24;100.00;101150.94;4856820;29;20228;-72
2022/12/17 15:39:15;;;;;;;0.30;0.30;;;-5.80;99.90;;;-6.15;100.00;101164.59;4865155;29;20236;-72
2022/12/17 15:44:28;;;;;;;0.30;0.30;;;-5.70;99.90;;;-6.09;100.00;101180.56;4857934;29;20304;-72
2022/12/17 15:46:57;;;;;;;0.20;0.20;;;-5.70;99.90;;;-6.33;100.00;101160.44;4877307;29;20232;-71
2022/12/17 15:49:24;;;;;;;0.30;0.30;;;-5.90;99.90;;;-6.39;100.00;101162.47;4866084;29;20333;-72
2022/12/17 15:51:51;;;;;;;0.30;0.30;;;-6.40;99.90;;;-6.29;100.00;101171.13;4876736;29;20315;-72
2022/12/17 15:54:18;;;;;;;0.30;0.30;;;-5.90;99.90;;;-6.40;100.00;101161.56;4871358;29;20240;-72
2022/12/17 15:57:01;;;;;;;0.40;0.40;;;-5.90;99.90;;;-6.20;100.00;101166.78;4876138;29;20240;-71
2022/12/17 15:59:37;;;;;;;0.30;0.30;;;-5.80;99.90;;;-6.60;100.00;101135.72;4856475;29;20233;-72
2022/12/17 16:02:19;;;;;;;0.38;0.38;;;-6.10;99.90;;;-6.62;100.00;101138.16;4870377;29;20243;-72
2022/12/17 16:04:46;;;;;;;0.82;0.82;;;-6.20;99.90;;;-6.52;100.00;101151.06;4878906;29;20242;-71
2022/12/17 16:07:15;;;;;;;0.30;0.30;;;-6.10;99.90;;;-6.45;100.00;101155.13;4866958;29;20233;-72
2022/12/17 16:09:42;;;;;;;0.30;0.30;;;-6.10;99.90;;;-6.36;100.00;101163.63;4884540;29;20318;-72
2022/12/17 16:12:09;;;;;;;0.32;0.32;;;-6.00;99.90;;;-6.23;100.00;101175.91;4876234;29;20231;-72
2022/12/17 16:14:36;;;;;;;0.30;0.30;;;-5.90;99.90;;;-6.53;100.00;101159.56;4859426;29;20664;-71
2022/12/17 16:17:03;;;;;;;0.30;0.30;;;-6.00;99.90;;;-6.44;100.00;101159.50;4871542;29;20866;-71
2022/12/17 16:19:30;;;;;;;0.30;0.30;;;-5.80;99.90;;;-6.36;100.00;101165.31;4873371;29;20324;-71
2022/12/17 16:21:57;;;;;;;0.40;0.40;;;-6.00;99.90;;;-6.45;100.00;101162.84;4865779;29;20240;-72
2022/12/17 16:24:24;;;;;;;0.40;0.40;;;-6.10;99.90;;;-6.63;100.00;101156.94;4863111;29;20323;-72
2022/12/17 16:26:51;;;;;;;0.20;0.20;;;-6.10;99.90;;;-6.60;100.00;101161.47;4857078;29;20300;-72
2022/12/17 16:29:24;;;;;;;0.30;0.30;;;-6.10;99.90;;;-6.57;100.00;101167.78;4866150;29;20240;-71
2022/12/17 16:31:51;;;;;;;0.30;0.30;;;-6.10;99.90;;;-6.52;100.00;101166.50;4856003;29;20724;-73
2022/12/17 16:34:18;;;;;;;0.30;0.30;;;-6.10;99.90;;;-6.38;100.00;101178.03;4859915;29;20244;-71
2022/12/17 16:36:46;;;;;;;0.30;0.30;;;-6.00;99.90;;;-6.52;100.00;101174.22;4853646;29;20224;-72
2022/12/17 16:39:18;;;;;;;0.38;0.38;;;-6.00;99.90;;;-6.67;100.00;101167.72;4873247;29;20236;-71
2022/12/17 16:41:46;;;;;;;0.30;0.30;;;-6.20;99.90;;;-6.61;100.00;101169.94;4876157;29;20236;-72
2022/12/17 16:44:13;;;;;;;0.20;0.20;;;-6.20;99.90;;;-6.60;100.00;101175.22;4868134;29;20326;-71
2022/12/17 16:46:45;;;;;;;0.20;0.20;;;-6.20;99.90;;;-6.64;100.00;101168.00;4866413;29;20240;-71
2022/12/17 16:49:18;;;;;;;0.30;0.30;;;-6.30;99.90;;;-6.59;100.00;101184.75;4856028;29;20259;-71
2022/12/17 16:51:50;;;;;;;0.30;0.30;;;-6.20;99.90;;;-6.55;100.00;101184.25;4845615;29;20247;-73
2022/12/17 16:54:21;;;;;;;0.50;0.50;;;-6.10;99.90;;;-6.51;100.00;101191.47;4848952;29;20236;-73
2022/12/17 16:56:49;;;;;;;1.05;1.05;;;-6.10;99.90;;;-6.73;100.00;101171.44;4837258;29;20253;-73
2022/12/17 16:59:17;;;;;;;0.30;0.30;;;-6.30;99.90;;;-6.54;100.00;101182.56;4872417;29;20316;-73
2022/12/17 17:01:47;;;;;;;0.30;0.30;;;-6.20;99.90;;;-6.39;100.00;101199.41;4861683;29;20236;-73
2022/12/17 17:04:18;;;;;;;0.30;0.30;;;-6.10;99.90;;;-6.55;100.00;101185.91;4868875;29;20244;-73
2022/12/17 17:06:52;;;;;;;0.40;0.40;;;-5.30;99.90;;;-6.58;100.00;101190.78;4854452;29;20299;-73
2022/12/17 17:09:20;;;;;;;0.30;0.30;;;-6.20;99.90;;;-6.52;100.00;101196.47;4842769;29;20239;-73
2022/12/17 17:11:48;;;;;;;0.30;0.30;;;-6.10;99.90;;;-6.48;100.00;101206.31;4842120;29;20232;-73
2022/12/17 17:14:18;;;;;;;0.40;0.40;;;-6.10;99.90;;;-6.56;100.00;101197.88;4876583;29;20235;-73
2022/12/17 17:16:45;;;;;;;0.20;0.20;;;-6.10;99.90;;;-6.60;100.00;101202.63;4856328;29;20297;-73
2022/12/17 17:19:12;;;;;;;0.20;0.20;;;-6.10;99.90;;;-6.55;100.00;101201.34;4850131;29;20232;-73
2022/12/17 17:21:42;;;;;;;0.30;0.30;;;-6.10;99.90;;;-6.61;100.00;101206.84;4859147;29;20241;-75
2022/12/17 17:24:14;;;;;;;0.20;0.20;;;-5.80;99.90;;;-6.68;100.00;101207.09;4860156;29;20908;-73
2022/12/17 17:26:48;;;;;;;0.50;0.50;;;-6.20;99.90;;;-6.93;100.00;101201.41;4867738;29;20235;-73
2022/12/17 17:29:16;;;;;;;0.20;0.20;;;-6.50;99.90;;;-6.84;100.00;101207.38;4848599;29;20766;-71
2022/12/17 17:31:45;;;;;;;0.30;0.30;;;-6.40;99.90;;;-6.96;100.00;101203.72;4864886;29;20247;-71
2022/12/17 17:34:34;;;;;;;0.30;0.30;;;-6.50;99.90;;;-6.81;100.00;101206.75;4860673;29;20658;-72
2022/12/17 17:37:02;;;;;;;0.30;0.30;;;-6.40;99.90;;;-6.78;100.00;101207.94;4874797;29;20315;-71
2022/12/17 17:39:31;;;;;;;0.30;0.30;;;-6.40;99.90;;;-6.90;100.00;101196.53;4864896;29;20229;-72
2022/12/17 17:41:59;;;;;;;0.95;0.95;;;-6.50;99.90;;;-6.86;100.00;101202.88;4877761;29;20347;-72
2022/12/17 17:44:26;;;;;;;0.20;0.20;;;-6.40;99.90;;;-6.91;100.00;101199.88;4870094;29;20237;-72
2022/12/17 17:46:55;;;;;;;0.38;0.38;;;-6.50;99.90;;;-7.17;100.00;101192.41;4859573;29;20236;-72
2022/12/17 17:49:22;;;;;;;0.30;0.30;;;-6.60;99.90;;;-6.97;100.00;101214.75;4831993;29;20289;-72
2022/12/17 17:51:49;;;;;;;0.30;0.30;;;-6.60;99.90;;;-6.91;100.00;101225.59;4864057;29;20240;-71
2022/12/17 17:54:38;;;;;;;0.30;0.30;;;-6.60;99.90;;;-6.88;100.00;101225.88;4847513;29;20240;-71
2022/12/17 17:57:06;;;;;;;0.30;0.30;;;-6.50;99.90;;;-7.06;100.00;101219.06;4859933;29;20232;-71
2022/12/17 17:59:34;;;;;;;0.30;0.30;;;-6.60;99.90;;;-7.10;100.00;101224.69;4855957;29;20244;-72
2022/12/17 18:02:03;;;;;;;0.35;0.35;;;-6.70;99.90;;;-7.16;100.00;101217.34;4856418;29;20240;-72
2022/12/17 18:04:31;;;;;;;0.20;0.20;;;-6.70;99.90;;;-7.11;100.00;101226.38;4838750;29;20296;-72
2022/12/17 18:06:59;;;;;;;0.20;0.20;;;-6.70;99.90;;;-7.03;100.00;101239.00;4857557;29;20241;-72
2022/12/17 18:09:47;;;;;;;0.30;0.30;;;-6.60;99.90;;;-7.07;100.00;101227.53;4828201;29;20239;-72
2022/12/17 18:15:01;;;;;;;0.95;0.85;;;-6.50;99.90;;;-6.96;100.00;101239.72;4865775;29;20564;-71
2022/12/17 18:17:41;;;;;;;0.30;0.30;;;-6.60;99.90;;;-6.95;100.00;101238.94;4859189;29;20256;-71
2022/12/17 18:20:11;;;;;;;0.20;0.20;;;-6.50;99.90;;;-7.01;100.00;101246.09;4859428;29;20243;-71
2022/12/17 18:22:39;;;;;;;0.20;0.20;;;-6.70;99.90;;;-6.99;100.00;101239.44;4856374;29;20296;-72
2022/12/17 18:25:07;;;;;;;0.20;0.20;;;-6.60;99.90;;;-6.94;100.00;101239.84;4857010;29;20240;-73
2022/12/17 18:27:34;;;;;;;0.20;0.20;;;-6.60;99.90;;;-6.88;100.00;101248.13;4854324;29;20232;-73
2022/12/17 18:30:03;;;;;;;0.20;0.20;;;-6.50;99.90;;;-6.82;100.00;101246.09;4875679;29;20270;-73
2022/12/17 18:32:30;;;;;;;0.30;0.30;;;-6.40;99.90;;;-6.83;100.00;101240.06;4857003;29;20236;-72
2022/12/17 18:34:57;;;;;;;0.40;0.40;;;-6.40;99.90;;;-6.90;100.00;101239.34;4857400;29;20236;-72
2022/12/17 18:37:25;;;;;;;1.13;1.13;;;-6.40;99.90;;;-6.94;100.00;101233.03;4858995;29;20244;-73
2022/12/17 18:39:53;;;;;;;0.20;0.20;;;-6.50;99.90;;;-7.09;100.00;101231.66;4873927;29;20240;-72
2022/12/17 18:45:06;;;;;;;0.35;0.35;;;-5.80;99.90;;;-7.00;100.00;101239.28;4868644;29;20232;-72
2022/12/17 18:47:34;;;;;;;0.25;0.25;;;-6.50;99.90;;;-7.08;100.00;101235.13;4843067;29;20493;-72
2022/12/17 18:50:01;;;;;;;2.75;2.17;;;-6.60;99.90;;;-7.11;100.00;101222.88;4870774;29;20256;-72
2022/12/17 18:52:29;;;;;;;0.20;0.20;;;-6.60;99.90;;;-7.13;100.00;101222.75;4777814;29;20308;-72
2022/12/17 18:54:57;;;;;;;0.73;0.73;;;-6.60;99.90;;;-7.08;100.00;101233.44;4844573;29;20279;-73
2022/12/17 18:57:24;;;;;;;0.20;0.20;;;-6.60;99.90;;;-7.08;100.00;101235.13;4868503;29;20982;-73
2022/12/17 18:59:53;;;;;;;0.20;0.20;;;-6.70;99.90;;;-7.02;100.00;101239.16;4867273;29;20255;-73
2022/12/17 19:02:20;;;;;;;0.30;0.30;;;-6.70;99.90;;;-7.10;100.00;101238.44;4854238;29;20240;-72
2022/12/17 19:04:48;;;;;;;0.85;0.85;;;-6.60;99.90;;;-7.15;100.00;101237.13;4849731;29;20247;-72
2022/12/17 19:07:15;;;;;;;0.20;0.20;;;-6.60;99.90;;;-7.07;100.00;101248.09;4852129;29;20231;-72
2022/12/17 19:09:42;;;;;;;0.30;0.30;;;-6.70;99.90;;;-7.34;100.00;101241.34;4833398;29;20299;-71
2022/12/17 19:12:10;;;;;;;0.30;0.30;;;-6.80;99.90;;;-7.54;100.00;101223.19;4842918;29;20260;-72
2022/12/17 19:14:37;;;;;;;1.50;1.48;;;-7.00;99.90;;;-7.27;100.00;101243.72;4843728;29;20252;-72
2022/12/17 19:17:05;;;;;;;0.65;0.65;;;-6.90;99.90;;;-7.42;100.00;101232.94;4841157;29;20300;-72
2022/12/17 19:19:32;;;;;;;0.35;0.35;;;-7.00;99.90;;;-7.32;100.00;101237.25;4834599;29;20267;-72
2022/12/17 19:22:00;;;;;;;0.77;0.77;;;-6.90;99.90;;;-7.51;100.00;101226.03;4847388;29;20224;-72
2022/12/17 19:24:28;;;;;;;0.30;0.30;;;-7.00;99.90;;;-7.30;100.00;101237.38;4838568;29;20293;-73
2022/12/17 19:26:57;;;;;;;0.20;0.20;;;-6.90;99.90;;;-7.37;100.00;101230.78;4870920;29;20239;-72
2022/12/17 19:29:26;;;;;;;0.30;0.30;;;-6.90;99.90;;;-7.31;100.00;101238.16;4842330;29;20240;-73
2022/12/17 19:31:53;;;;;;;0.20;0.20;;;-6.90;99.90;;;-7.29;100.00;101240.09;4848357;29;20236;-72
2022/12/17 19:34:20;;;;;;;0.20;0.20;;;-6.90;99.90;;;-7.16;100.00;101248.16;4838759;29;20260;-72
2022/12/17 19:36:48;;;;;;;0.40;0.40;;;-6.80;99.90;;;-7.10;100.00;101259.00;4860996;29;20243;-72
2022/12/17 19:39:18;;;;;;;0.30;0.30;;;-6.70;99.90;;;-7.22;100.00;101247.63;4864450;29;20315;-72
2022/12/17 19:41:49;;;;;;;0.30;0.30;;;-6.30;99.90;;;-7.21;100.00;101246.84;4843612;29;20243;-72
2022/12/17 19:44:19;;;;;;;0.30;0.30;;;-6.80;99.90;;;-7.26;100.00;101248.09;4859816;29;20232;-73
2022/12/17 19:46:46;;;;;;;0.52;0.52;;;-6.80;99.90;;;-7.43;100.00;101240.50;4860150;29;20236;-72
2022/12/17 19:49:15;;;;;;;0.30;0.30;;;-6.90;99.90;;;-7.39;100.00;101242.59;4849950;29;20264;-72
2022/12/17 19:51:43;;;;;;;0.30;0.30;;;-6.90;99.90;;;-7.43;100.00;101235.34;4857636;29;20238;-72
2022/12/17 19:54:13;;;;;;;0.40;0.40;;;-6.90;99.90;;;-7.51;100.00;101221.81;4842268;29;20273;-73
2022/12/17 19:56:43;;;;;;;0.30;0.30;;;-7.00;99.90;;;-7.47;100.00;101223.91;4867332;29;20275;-73
2022/12/17 19:59:11;;;;;;;0.40;0.40;;;-7.00;99.90;;;-7.52;100.00;101216.53;4859738;29;20244;-72
2022/12/17 20:01:44;;;;;;;0.20;0.20;;;-7.00;99.90;;;-7.42;100.00;101230.38;4835743;29;20243;-73
2022/12/17 20:04:14;;;;;;;0.32;0.32;;;-7.00;99.90;;;-7.53;100.00;101225.00;4826202;29;20244;-73
2022/12/17 20:06:43;;;;;;;0.30;0.30;;;-7.00;99.90;;;-7.59;100.00;101217.63;4837867;29;20618;-73
2022/12/17 20:09:11;;;;;;;0.20;0.20;;;-7.10;99.90;;;-7.61;100.00;101219.16;4850853;29;20282;-73
2022/12/17 20:11:38;;;;;;;0.30;0.30;;;-7.10;99.90;;;-7.62;100.00;101219.00;4857445;29;20285;-73
2022/12/17 20:14:20;;;;;;;0.40;0.40;;;-7.00;99.90;;;-7.57;100.00;101231.50;4846651;29;20228;-73
2022/12/17 20:16:59;;;;;;;0.25;0.25;;;-7.10;99.90;;;-7.83;100.00;101220.44;4839615;29;20283;-72
2022/12/17 20:19:29;;;;;;;0.30;0.30;;;-7.30;99.90;;;-7.75;100.00;101222.09;4831805;29;20239;-72
2022/12/17 20:21:59;;;;;;;0.20;0.20;;;-7.30;99.90;;;-7.83;100.00;101225.56;4822183;29;20255;-72
2022/12/17 20:24:27;;;;;;;0.40;0.40;;;-7.30;99.90;;;-7.77;100.00;101239.94;4839626;29;20297;-73
2022/12/17 20:26:58;;;;;;;0.30;0.30;;;-7.40;99.90;;;-7.60;100.00;101244.06;4859553;29;20259;-72
2022/12/17 20:29:26;;;;;;;0.35;0.35;;;-7.20;99.90;;;-7.62;100.00;101235.31;4822906;29;20256;-73
2022/12/17 20:31:54;;;;;;;0.40;0.40;;;-7.10;99.90;;;-7.74;100.00;101234.19;4831766;29;20232;-73
2022/12/17 20:34:22;;;;;;;0.40;0.40;;;-7.20;99.90;;;-7.63;100.00;101235.19;4850941;29;20289;-75
2022/12/17 20:36:51;;;;;;;0.30;0.30;;;-7.20;99.90;;;-7.67;100.00;101231.41;4834000;29;20229;-73
2022/12/17 20:39:19;;;;;;;0.30;0.30;;;-7.20;99.90;;;-7.58;100.00;101229.69;4829867;29;20283;-72
2022/12/17 20:41:53;;;;;;;1.85;1.30;;;-7.10;99.90;;;-7.78;100.00;101220.16;4842320;29;20234;-73
2022/12/17 20:44:20;;;;;;;0.30;0.30;;;-7.30;99.90;;;-7.56;100.00;101240.13;4835203;29;20247;-74
2022/12/17 20:46:47;;;;;;;0.40;0.40;;;-7.20;99.90;;;-7.80;100.00;101233.59;4900115;23;20772;-76
2022/12/17 20:49:14;;;;;;;0.30;0.30;;;-7.30;99.90;;;-7.58;100.00;101245.13;4891839;29;20297;-76
2022/12/17 20:51:41;;;;;;;0.30;0.30;;;-7.20;99.90;;;-7.87;100.00;101229.53;4911226;29;20313;-77
2022/12/17 20:54:09;;;;;;;0.40;0.40;;;-7.30;99.90;;;-7.89;100.00;101228.47;4912210;29;20235;-76
2022/12/17 20:56:38;;;;;;;0.30;0.30;;;-7.50;99.90;;;-7.94;100.00;101237.41;4899741;29;20231;-76
2022/12/17 20:59:10;;;;;;;0.40;0.40;;;-7.50;99.90;;;-7.85;100.00;101245.06;4896043;29;20260;-76
2022/12/17 21:01:37;;;;;;;0.40;0.40;;;-7.40;99.90;;;-7.92;100.00;101248.72;4877765;29;20347;-74
2022/12/17 21:04:06;;;;;;;0.30;0.30;;;-7.40;99.90;;;-7.89;100.00;101254.16;4896305;29;20243;-75
2022/12/17 21:06:51;;;;;;;0.30;0.30;;;-7.30;99.90;;;-7.75;100.00;101265.75;4888335;29;20247;-74
2022/12/17 21:09:21;;;;;;;0.40;0.40;;;-7.30;99.90;;;-7.83;100.00;101253.81;4891306;29;20231;-75
2022/12/17 21:11:48;;;;;;;0.47;0.47;;;-7.30;99.90;;;-7.85;100.00;101251.09;4888964;29;20232;-74
2022/12/17 21:14:18;;;;;;;0.30;0.30;;;-7.40;99.90;;;-7.77;100.00;101259.56;4889860;29;20306;-74
2022/12/17 21:16:45;;;;;;;0.30;0.30;;;-7.40;99.90;;;-7.94;100.00;101250.25;4887783;29;20321;-76
2022/12/17 21:19:16;;;;;;;0.30;0.30;;;-7.40;99.90;;;-8.10;100.00;101246.97;4891377;29;20778;-77
2022/12/17 21:21:44;;;;;;;0.82;0.82;;;-7.60;99.90;;;-7.83;100.00;101269.22;4889615;29;20329;-75
2022/12/17 21:24:11;;;;;;;0.35;0.35;;;-7.50;99.90;;;-7.91;100.00;101267.59;4885555;29;20299;-74
2022/12/17 21:26:40;;;;;;;0.30;0.30;;;-7.50;99.90;;;-7.85;100.00;101273.31;4885434;29;20326;-74
2022/12/17 21:29:09;;;;;;;0.40;0.40;;;-7.40;99.90;;;-7.88;100.00;101276.50;4883886;29;20318;-74
2022/12/17 21:31:46;;;;;;;0.40;0.40;;;-6.90;99.90;;;-7.68;100.00;101298.94;4886123;29;20639;-73
2022/12/17 21:34:23;;;;;;;0.30;0.30;;;-7.30;99.90;;;-7.83;100.00;101287.19;4885190;29;20227;-74
2022/12/17 21:36:51;;;;;;;0.65;0.65;;;-7.40;99.90;;;-7.94;100.00;101281.03;4888215;29;20242;-77
2022/12/17 21:39:19;;;;;;;0.30;0.30;;;-7.50;99.90;;;-7.97;100.00;101277.28;4887877;29;20232;-74
2022/12/17 21:44:35;;;;;;;0.40;0.40;;;-7.40;99.90;;;-7.91;100.00;101276.19;4889910;29;20267;-72
2022/12/17 21:47:03;;;;;;;0.30;0.30;;;-7.40;99.90;;;-7.89;100.00;101272.13;4928473;23;20255;-74
2022/12/17 21:49:30;;;;;;;1.58;1.55;;;-7.40;99.90;;;-7.92;100.00;101279.53;4886053;29;20222;-74
2022/12/17 21:51:58;;;;;;;0.30;0.30;;;-7.50;99.90;;;-7.95;100.00;101268.97;4860441;29;20291;-74
2022/12/17 21:54:25;;;;;;;0.40;0.40;;;-7.50;99.90;;;-7.85;100.00;101271.66;4860152;29;20339;-73
2022/12/17 21:56:53;;;;;;;0.50;0.50;;;-7.40;99.90;;;-7.75;100.00;101283.72;4885021;29;20306;-74
2022/12/17 21:59:20;;;;;;;0.30;0.30;;;-7.30;99.90;;;-7.92;100.00;101271.81;4870107;29;20232;-74
2022/12/17 22:01:49;;;;;;;0.52;0.52;;;-7.50;99.90;;;-7.75;100.00;101300.03;4857980;29;20347;-74
2022/12/17 22:04:16;;;;;;;0.40;0.40;;;-7.30;99.90;;;-7.84;100.00;101296.56;4881618;29;20296;-74
2022/12/17 22:06:43;;;;;;;0.30;0.30;;;-7.40;99.90;;;-7.73;100.00;101312.13;4869710;29;20311;-74
2022/12/17 22:09:23;;;;;;;0.30;0.30;;;-7.30;99.90;;;-7.77;100.00;101301.56;4860793;29;20232;-74
2022/12/17 22:14:55;;;;;;;0.30;0.30;;;-7.30;99.90;;;-7.70;100.00;101305.59;4888150;29;20664;-74
2022/12/17 22:17:23;;;;;;;0.30;0.30;;;-7.20;99.90;;;-7.58;100.00;101308.44;4863698;29;20260;-74
2022/12/17 22:19:50;;;;;;;0.40;0.40;;;-7.20;99.90;;;-7.70;100.00;101295.34;4871155;29;20240;-74
2022/12/17 22:22:17;;;;;;;0.30;0.30;;;-7.20;99.90;;;-7.71;100.00;101287.50;4867537;29;20228;-74
2022/12/17 22:24:44;;;;;;;0.35;0.35;;;-7.20;99.90;;;-7.55;100.00;101304.47;4868846;29;20308;-74
2022/12/17 22:27:11;;;;;;;0.30;0.30;;;-7.10;99.90;;;-7.63;100.00;101308.00;4879049;29;20277;-74
2022/12/17 22:35:10;;;;;;;0.30;0.30;;;-7.10;99.90;;;-7.60;100.00;101308.28;4884263;29;20235;-74
2022/12/17 22:37:57;;;;;;;0.30;0.30;;;-7.20;99.90;;;-7.60;100.00;101325.34;4856735;29;20319;-74
2022/12/17 22:40:44;;;;;;;0.30;0.30;;;-7.10;99.90;;;-7.61;100.00;101324.44;4869689;29;20243;-74
2022/12/17 22:43:33;;;;;;;0.30;0.30;;;-7.10;99.90;;;-7.52;100.00;101332.13;4855444;29;20243;-74
2022/12/17 22:46:22;;;;;;;0.40;0.40;;;-7.10;99.90;;;-7.48;100.00;101329.97;4866854;29;20240;-74
2022/12/17 22:49:00;;;;;;;0.40;0.40;;;-7.00;99.90;;;-7.52;100.00;101337.25;4899829;23;20231;-78
2022/12/17 22:51:27;;;;;;;2.05;1.95;;;-7.10;99.90;;;-7.37;100.00;101348.97;4881072;29;20231;-79
2022/12/17 22:54:02;;;;;;;0.50;0.50;;;-7.00;99.90;;;-7.48;100.00;101341.94;4879740;29;20235;-78
2022/12/17 22:56:30;;;;;;;0.40;0.40;;;-7.00;99.90;;;-7.53;100.00;101331.22;4892270;29;20242;-76
2022/12/17 22:59:19;;;;;;;0.30;0.30;;;-7.10;99.90;;;-7.33;100.00;101351.06;4894850;29;20258;-77
2022/12/17 23:01:46;;;;;;;1.17;1.17;;;-6.90;99.90;;;-7.35;100.00;101350.03;4894510;29;20298;-74
2022/12/17 23:04:15;;;;;;;0.63;0.63;;;-6.90;99.90;;;-7.47;100.00;101336.03;4893157;29;20267;-74
2022/12/17 23:06:46;;;;;;;0.30;0.30;;;-7.00;99.90;;;-7.36;100.00;101344.75;4890257;29;20323;-78
2022/12/17 23:09:18;;;;;;;0.40;0.40;;;-7.00;99.90;;;-7.29;100.00;101347.13;4893736;29;20258;-77
2022/12/17 23:11:47;;;;;;;0.30;0.30;;;-6.90;99.90;;;-7.39;100.00;101331.59;4894720;29;20675;-74
2022/12/17 23:14:15;;;;;;;0.40;0.40;;;-6.90;99.90;;;-7.25;100.00;101347.56;4880181;29;20291;-75
2022/12/17 23:16:42;;;;;;;0.25;0.25;;;-6.80;99.90;;;-7.27;100.00;101353.31;4892261;29;20261;-75
2022/12/17 23:19:09;;;;;;;0.40;0.40;;;-6.80;99.90;;;-7.36;100.00;101349.88;4890226;29;20354;-77
2022/12/17 23:21:37;;;;;;;0.70;0.70;;;-6.90;99.90;;;-7.32;100.00;101360.59;4896947;29;20238;-74
2022/12/17 23:24:05;;;;;;;0.30;0.30;;;-6.90;99.90;;;-7.27;100.00;101351.66;4893902;29;20318;-74
2022/12/17 23:26:35;;;;;;;0.25;0.25;;;-6.90;99.90;;;-7.33;100.00;101347.59;4897875;29;20240;-74
2022/12/17 23:29:07;;;;;;;0.30;0.30;;;-6.90;99.90;;;-7.24;100.00;101351.94;4894282;29;20314;-76
2022/12/17 23:31:38;;;;;;;0.30;0.30;;;-6.80;99.90;;;-7.18;100.00;101349.03;4895375;29;20249;-75
2022/12/17 23:34:06;;;;;;;0.68;0.68;;;-6.80;99.90;;;-7.28;100.00;101352.41;4898754;29;20235;-80
2022/12/17 23:36:35;;;;;;;1.13;1.10;;;-6.90;99.90;;;-7.24;100.00;101354.50;4891656;29;20303;-74
2022/12/17 23:39:03;;;;;;;0.30;0.30;;;-6.80;99.90;;;-7.24;100.00;101358.75;4886624;29;20346;-77
2022/12/17 23:41:31;;;;;;;0.30;0.30;;;-6.80;99.90;;;-7.19;100.00;101362.66;4882649;29;20294;-76
2022/12/17 23:43:58;;;;;;;0.32;0.32;;;-6.80;99.90;;;-7.18;100.00;101362.78;4888127;29;20234;-74
2022/12/17 23:51:53;;;;;;;0.20;0.20;;;-6.80;99.90;;;-7.10;100.00;101371.22;4870574;29;20215;-66
2022/12/17 23:54:20;;;;;;;0.30;0.30;;;-6.70;99.90;;;-7.10;100.00;101371.22;4888084;29;20247;-67
2022/12/17 23:56:47;;;;;;;0.40;0.40;;;-6.70;99.90;;;-7.24;100.00;101364.78;4845387;29;20311;-67
2022/12/17 23:59:17;;;;;;;1.17;1.15;;;-6.70;99.90;;;-7.31;100.00;101362.41;4891465;29;20232;-67
